Time;durP1;ratioP1;P1;durP2;ratioP2;P2;SDS_P1;SDS_P2;PMS_P1;PMS_P2;Temp;Humidity;BMP_temperature;BMP_pressure;BME280_temperature;BME280_humidity;BME280_pressure;Samples;Min_cycle;Max_cycle;Signal;HPM_P1;HPM_P2
2021/10/25 00:04:00;;;;;;;2.63;1.67;;;;;;;;;;4834787;28;19922;-76
2021/10/25 00:06:25;;;;;;;3.28;1.70;;;;;;;;;;5007583;28;20052;-76
2021/10/25 00:08:51;;;;;;;3.20;1.60;;;;;;;;;;5007061;28;20498;-76
2021/10/25 00:11:16;;;;;;;2.73;1.70;;;;;;;;;;5006246;28;20331;-76
2021/10/25 00:13:41;;;;;;;2.35;1.50;;;;;;;;;;5006774;28;20295;-76
2021/10/25 00:16:07;;;;;;;2.47;1.65;;;;;;;;;;5006939;28;20058;-76
2021/10/25 00:18:32;;;;;;;5.75;1.92;;;;;;;;;;5007180;28;20022;-76
2021/10/25 00:20:57;;;;;;;3.55;1.50;;;;;;;;;;5007137;28;20052;-76
2021/10/25 00:23:23;;;;;;;3.50;1.97;;;;;;;;;;5006808;28;20467;-76
2021/10/25 00:25:48;;;;;;;2.77;1.70;;;;;;;;;;5007035;28;20287;-76
2021/10/25 00:28:13;;;;;;;3.03;1.70;;;;;;;;;;5006866;28;20292;-76
2021/10/25 00:30:38;;;;;;;3.90;1.87;;;;;;;;;;5020508;28;20526;-76
2021/10/25 00:33:04;;;;;;;3.30;1.67;;;;;;;;;;5024312;28;20323;-73
2021/10/25 00:35:29;;;;;;;2.35;1.50;;;;;;;;;;5026577;28;20021;-76
2021/10/25 00:37:54;;;;;;;4.25;1.95;;;;;;;;;;5026577;28;20104;-76
2021/10/25 00:40:20;;;;;;;2.77;1.53;;;;;;;;;;5024805;28;20014;-76
2021/10/25 00:42:45;;;;;;;3.38;1.83;;;;;;;;;;5025587;28;20294;-76
2021/10/25 00:45:10;;;;;;;2.13;1.40;;;;;;;;;;5026292;28;20052;-76
2021/10/25 00:47:36;;;;;;;2.72;1.48;;;;;;;;;;5026068;28;20261;-76
2021/10/25 00:50:01;;;;;;;2.53;1.48;;;;;;;;;;5026023;28;20106;-76
2021/10/25 00:52:27;;;;;;;2.92;1.50;;;;;;;;;;5025678;28;20675;-76
2021/10/25 00:54:52;;;;;;;3.03;1.58;;;;;;;;;;5024493;28;20389;-76
2021/10/25 00:57:17;;;;;;;2.60;1.80;;;;;;;;;;5026080;28;20057;-76
2021/10/25 00:59:42;;;;;;;2.85;1.63;;;;;;;;;;5026197;28;20059;-76
2021/10/25 01:02:08;;;;;;;2.47;1.60;;;;;;;;;;5026053;28;20034;-76
2021/10/25 01:04:33;;;;;;;2.35;1.48;;;;;;;;;;5025572;28;20045;-76
2021/10/25 01:06:58;;;;;;;2.70;1.40;;;;;;;;;;5025682;28;20029;-76
2021/10/25 01:09:24;;;;;;;2.78;1.88;;;;;;;;;;5025986;28;20048;-76
2021/10/25 01:11:49;;;;;;;3.55;1.40;;;;;;;;;;5024083;28;20025;-76
2021/10/25 01:14:15;;;;;;;3.72;2.20;;;;;;;;;;5025267;28;20104;-76
2021/10/25 01:16:40;;;;;;;2.63;1.60;;;;;;;;;;5025788;28;20028;-76
2021/10/25 01:19:06;;;;;;;3.00;1.73;;;;;;;;;;5025710;28;20017;-76
2021/10/25 01:21:32;;;;;;;2.70;1.63;;;;;;;;;;5024088;28;20028;-76
2021/10/25 01:23:58;;;;;;;2.85;1.40;;;;;;;;;;5025324;28;20749;-76
2021/10/25 01:26:24;;;;;;;3.13;1.30;;;;;;;;;;5025840;28;20036;-77
2021/10/25 01:28:49;;;;;;;2.50;1.57;;;;;;;;;;5023594;28;20021;-77
2021/10/25 01:31:15;;;;;;;2.20;1.48;;;;;;;;;;5023313;28;20375;-76
2021/10/25 01:33:43;;;;;;;2.95;1.50;;;;;;;;;;5024016;28;20483;-77
2021/10/25 01:36:08;;;;;;;2.78;1.55;;;;;;;;;;5025367;28;20286;-76
2021/10/25 01:38:33;;;;;;;2.90;1.38;;;;;;;;;;5025226;28;20018;-75
2021/10/25 01:40:58;;;;;;;2.43;1.30;;;;;;;;;;5025082;28;20017;-75
2021/10/25 01:43:23;;;;;;;2.67;2.10;;;;;;;;;;5025189;28;20671;-75
2021/10/25 01:45:51;;;;;;;2.33;1.50;;;;;;;;;;5024893;28;20260;-76
2021/10/25 01:48:16;;;;;;;2.55;1.55;;;;;;;;;;5023938;28;20845;-75
2021/10/25 01:50:41;;;;;;;2.58;1.70;;;;;;;;;;5023901;28;20021;-75
2021/10/25 01:53:08;;;;;;;2.65;1.45;;;;;;;;;;5025139;28;20030;-76
2021/10/25 01:55:33;;;;;;;2.63;1.70;;;;;;;;;;5025754;28;20037;-75
2021/10/25 01:57:59;;;;;;;2.97;1.67;;;;;;;;;;5025256;28;20039;-75
2021/10/25 02:00:24;;;;;;;2.35;1.33;;;;;;;;;;5025388;28;20260;-74
2021/10/25 02:02:49;;;;;;;2.47;1.30;;;;;;;;;;5024704;28;20429;-75
2021/10/25 02:05:14;;;;;;;2.27;1.50;;;;;;;;;;5024856;28;20045;-75
2021/10/25 02:07:40;;;;;;;3.50;1.80;;;;;;;;;;5024977;28;20256;-75
2021/10/25 02:10:05;;;;;;;2.78;1.70;;;;;;;;;;5024801;28;20264;-75
2021/10/25 02:12:30;;;;;;;3.08;1.52;;;;;;;;;;5024529;28;20400;-75
2021/10/25 02:14:56;;;;;;;1.97;1.30;;;;;;;;;;5024786;28;20523;-76
2021/10/25 02:17:21;;;;;;;2.13;1.40;;;;;;;;;;5024566;28;20503;-76
2021/10/25 02:19:49;;;;;;;2.72;1.40;;;;;;;;;;5024563;28;20089;-75
2021/10/25 02:22:14;;;;;;;2.03;1.40;;;;;;;;;;5024608;28;20014;-75
2021/10/25 02:24:39;;;;;;;2.70;1.48;;;;;;;;;;5024576;28;20032;-76
2021/10/25 02:27:05;;;;;;;2.97;1.50;;;;;;;;;;5023483;28;20091;-76
2021/10/25 02:29:35;;;;;;;2.83;1.55;;;;;;;;;;5023514;28;20025;-75
2021/10/25 02:32:03;;;;;;;3.42;1.67;;;;;;;;;;5019888;28;20171;-76
2021/10/25 02:34:30;;;;;;;3.97;1.45;;;;;;;;;;5027112;28;20025;-75
2021/10/25 02:36:55;;;;;;;2.08;1.40;;;;;;;;;;5028588;28;20236;-75
2021/10/25 02:39:21;;;;;;;2.67;1.25;;;;;;;;;;5028407;28;20021;-75
2021/10/25 02:41:46;;;;;;;1.90;1.20;;;;;;;;;;5026963;28;20025;-76
2021/10/25 02:44:11;;;;;;;2.83;1.73;;;;;;;;;;5028384;28;20030;-75
2021/10/25 02:46:36;;;;;;;2.20;1.30;;;;;;;;;;5028178;28;20079;-76
2021/10/25 02:49:02;;;;;;;2.43;1.40;;;;;;;;;;5028558;28;20029;-75
2021/10/25 02:51:27;;;;;;;2.00;1.58;;;;;;;;;;5028642;28;20643;-75
2021/10/25 02:53:52;;;;;;;2.55;1.50;;;;;;;;;;5029944;28;20025;-75
2021/10/25 02:56:18;;;;;;;2.00;1.33;;;;;;;;;;5029288;28;20068;-76
2021/10/25 02:58:43;;;;;;;2.33;1.20;;;;;;;;;;5029159;28;20326;-75
2021/10/25 03:01:08;;;;;;;2.10;1.27;;;;;;;;;;5029774;28;20841;-75
2021/10/25 03:03:33;;;;;;;1.67;1.27;;;;;;;;;;5028287;28;20061;-75
2021/10/25 03:05:59;;;;;;;2.03;1.30;;;;;;;;;;5027956;28;20271;-75
2021/10/25 03:08:24;;;;;;;1.92;1.23;;;;;;;;;;5028063;28;20256;-75
2021/10/25 03:10:49;;;;;;;3.07;1.50;;;;;;;;;;5028022;28;20488;-75
2021/10/25 03:13:15;;;;;;;2.33;1.30;;;;;;;;;;5027711;28;20280;-75
2021/10/25 03:15:40;;;;;;;2.05;1.30;;;;;;;;;;5026419;28;20279;-75
2021/10/25 03:18:05;;;;;;;2.27;1.50;;;;;;;;;;5027854;28;20079;-75
2021/10/25 03:20:30;;;;;;;2.10;1.57;;;;;;;;;;5027975;28;20252;-75
2021/10/25 03:22:56;;;;;;;2.40;1.50;;;;;;;;;;5027586;28;20772;-75
2021/10/25 03:25:21;;;;;;;2.13;1.30;;;;;;;;;;5027709;28;20053;-75
2021/10/25 03:27:47;;;;;;;2.60;1.50;;;;;;;;;;5027581;28;20306;-75
2021/10/25 03:30:14;;;;;;;2.50;1.40;;;;;;;;;;5026611;28;20598;-75
2021/10/25 03:32:39;;;;;;;2.40;1.40;;;;;;;;;;5027464;28;20029;-75
2021/10/25 03:35:05;;;;;;;2.05;1.38;;;;;;;;;;5027041;28;20033;-75
2021/10/25 03:37:33;;;;;;;1.95;1.25;;;;;;;;;;5027728;28;20018;-74
2021/10/25 03:39:58;;;;;;;1.67;1.20;;;;;;;;;;5027759;28;20036;-75
2021/10/25 03:44:56;;;;;;;2.25;1.38;;;;;;;;;;5025985;28;20295;-75
2021/10/25 03:47:29;;;;;;;3.05;1.40;;;;;;;;;;5027259;28;20058;-74
2021/10/25 03:50:16;;;;;;;2.33;1.65;;;;;;;;;;5028499;28;20029;-75
2021/10/25 03:55:27;;;;;;;2.42;1.42;;;;;;;;;;5009118;28;20105;-74
2021/10/25 04:27:55;;;;;;;2.42;1.20;;;;;;;;;;5026759;28;20106;-75
2021/10/25 04:30:20;;;;;;;1.77;1.50;;;;;;;;;;5025767;28;20522;-75
2021/10/25 04:32:46;;;;;;;2.85;1.70;;;;;;;;;;5026467;28;20029;-75
2021/10/25 04:35:11;;;;;;;2.60;1.65;;;;;;;;;;5025766;28;20021;-76
2021/10/25 04:37:37;;;;;;;2.47;1.52;;;;;;;;;;5026244;28;20199;-76
2021/10/25 04:40:04;;;;;;;1.93;1.57;;;;;;;;;;5026368;28;20132;-75
2021/10/25 04:42:29;;;;;;;2.78;1.35;;;;;;;;;;5026153;28;20488;-76
2021/10/25 04:44:54;;;;;;;2.65;1.40;;;;;;;;;;5026935;28;20036;-76
2021/10/25 04:47:19;;;;;;;1.95;1.23;;;;;;;;;;5026872;28;20033;-76
2021/10/25 04:49:45;;;;;;;2.90;1.60;;;;;;;;;;5025372;28;20033;-75
2021/10/25 04:52:10;;;;;;;2.22;1.35;;;;;;;;;;5025132;28;20689;-76
2021/10/25 04:54:36;;;;;;;2.70;1.55;;;;;;;;;;5020779;28;20055;-77
2021/10/25 04:57:02;;;;;;;2.13;1.33;;;;;;;;;;5024023;28;20017;-76
2021/10/25 04:59:27;;;;;;;1.80;1.00;;;;;;;;;;5022500;28;20022;-75
2021/10/25 05:01:52;;;;;;;1.90;1.30;;;;;;;;;;5022754;28;20029;-75
2021/10/25 05:04:17;;;;;;;1.90;1.27;;;;;;;;;;5024964;28;20315;-75
2021/10/25 05:06:43;;;;;;;2.20;1.33;;;;;;;;;;5020146;28;20868;-71
2021/10/25 05:09:08;;;;;;;2.17;1.07;;;;;;;;;;5023501;28;20033;-74
2021/10/25 05:11:33;;;;;;;2.58;1.40;;;;;;;;;;5019836;28;20272;-70
2021/10/25 05:13:58;;;;;;;1.80;1.08;;;;;;;;;;5021639;28;20023;-71
2021/10/25 05:16:24;;;;;;;2.70;1.47;;;;;;;;;;5021925;28;20020;-69
2021/10/25 05:18:49;;;;;;;2.33;1.33;;;;;;;;;;5022644;28;20092;-70
2021/10/25 05:21:14;;;;;;;1.83;1.27;;;;;;;;;;5023025;28;20013;-70
2021/10/25 05:23:40;;;;;;;2.08;1.10;;;;;;;;;;5022509;28;20143;-71
2021/10/25 05:26:05;;;;;;;2.35;1.30;;;;;;;;;;5021841;28;20568;-72
2021/10/25 05:28:30;;;;;;;1.90;1.20;;;;;;;;;;5023020;28;20021;-71
2021/10/25 05:30:56;;;;;;;1.90;1.17;;;;;;;;;;5022120;28;20036;-71
2021/10/25 05:33:21;;;;;;;2.80;1.30;;;;;;;;;;5019383;28;20029;-70
2021/10/25 05:35:47;;;;;;;2.50;1.48;;;;;;;;;;5019744;28;20608;-70
2021/10/25 05:38:13;;;;;;;2.37;1.30;;;;;;;;;;5021707;28;20048;-71
2021/10/25 05:40:39;;;;;;;3.28;1.50;;;;;;;;;;5024135;28;20654;-70
2021/10/25 05:43:04;;;;;;;2.15;1.13;;;;;;;;;;5021134;28;20021;-69
2021/10/25 05:45:29;;;;;;;2.17;1.20;;;;;;;;;;5023259;28;20037;-71
2021/10/25 05:47:55;;;;;;;1.90;1.20;;;;;;;;;;5021783;28;20104;-71
2021/10/25 05:50:20;;;;;;;2.72;1.20;;;;;;;;;;5024005;28;20287;-72
2021/10/25 05:52:45;;;;;;;1.70;1.10;;;;;;;;;;5021332;28;20117;-76
2021/10/25 05:55:10;;;;;;;3.00;1.03;;;;;;;;;;5022353;28;20288;-71
2021/10/25 05:57:36;;;;;;;2.60;1.23;;;;;;;;;;5019111;28;20025;-71
2021/10/25 06:00:04;;;;;;;2.85;1.35;;;;;;;;;;5020639;28;20025;-71
2021/10/25 06:02:36;;;;;;;2.20;1.30;;;;;;;;;;5020977;28;20114;-71
2021/10/25 06:05:04;;;;;;;2.50;1.50;;;;;;;;;;5021174;28;20052;-71
2021/10/25 06:07:29;;;;;;;2.25;1.30;;;;;;;;;;5021921;28;20403;-72
2021/10/25 06:09:55;;;;;;;2.50;1.43;;;;;;;;;;5022175;28;20028;-71
2021/10/25 06:12:21;;;;;;;2.25;1.20;;;;;;;;;;5022567;28;21720;-71
2021/10/25 06:14:47;;;;;;;2.53;1.30;;;;;;;;;;5023044;28;20022;-71
2021/10/25 06:17:26;;;;;;;3.08;1.40;;;;;;;;;;5023567;28;20056;-73
2021/10/25 06:19:51;;;;;;;2.63;1.20;;;;;;;;;;5022422;28;20044;-72
2021/10/25 06:22:21;;;;;;;2.40;1.37;;;;;;;;;;5023210;28;20504;-72
2021/10/25 06:24:46;;;;;;;2.03;1.10;;;;;;;;;;5021828;28;20720;-72
2021/10/25 06:27:12;;;;;;;2.33;1.15;;;;;;;;;;5023009;28;20030;-72
2021/10/25 06:29:37;;;;;;;2.33;1.10;;;;;;;;;;5022358;28;20772;-71
2021/10/25 06:32:02;;;;;;;2.50;1.23;;;;;;;;;;5022964;28;20252;-70
2021/10/25 06:34:34;;;;;;;2.05;1.15;;;;;;;;;;5023123;28;20288;-71
2021/10/25 06:36:59;;;;;;;2.42;1.40;;;;;;;;;;5019225;28;20022;-69
2021/10/25 06:39:37;;;;;;;2.28;1.20;;;;;;;;;;5023506;28;20549;-71
2021/10/25 06:42:03;;;;;;;2.00;1.17;;;;;;;;;;5020481;28;20021;-70
2021/10/25 06:44:28;;;;;;;2.63;1.20;;;;;;;;;;5023706;28;20087;-72
2021/10/25 06:46:53;;;;;;;3.30;1.35;;;;;;;;;;5021803;28;20025;-76
2021/10/25 06:49:19;;;;;;;2.58;1.38;;;;;;;;;;5023387;28;20116;-79
2021/10/25 06:51:44;;;;;;;3.83;1.47;;;;;;;;;;5023540;28;20064;-80
2021/10/25 06:54:10;;;;;;;2.55;1.38;;;;;;;;;;5023380;28;20300;-80
2021/10/25 06:56:35;;;;;;;3.13;1.20;;;;;;;;;;5024905;28;20495;-80
2021/10/25 06:59:01;;;;;;;3.17;1.43;;;;;;;;;;5024263;28;20029;-81
2021/10/25 07:01:26;;;;;;;2.45;1.35;;;;;;;;;;5023752;28;20989;-80
2021/10/25 07:03:52;;;;;;;2.70;1.33;;;;;;;;;;5021926;28;20057;-72
2021/10/25 07:06:18;;;;;;;2.58;1.23;;;;;;;;;;5021304;28;20037;-72
2021/10/25 07:08:45;;;;;;;2.13;1.30;;;;;;;;;;5018178;28;20025;-72
2021/10/25 07:11:13;;;;;;;3.08;1.58;;;;;;;;;;5014715;28;20888;-72
2021/10/25 07:13:45;;;;;;;2.92;1.33;;;;;;;;;;5010203;28;20037;-71
2021/10/25 07:16:23;;;;;;;1.90;1.30;;;;;;;;;;5020205;28;20415;-72
2021/10/25 07:19:04;;;;;;;3.58;1.50;;;;;;;;;;5019268;28;20029;-72
2021/10/25 08:10:24;;;;;;;3.22;1.38;;;;;;;;;;5024724;28;20021;-72
2021/10/25 08:12:58;;;;;;;3.15;1.80;;;;;;;;;;5025385;28;20025;-72
2021/10/25 08:15:28;;;;;;;3.40;1.90;;;;;;;;;;5025102;28;20709;-72
2021/10/25 08:17:59;;;;;;;2.58;1.48;;;;;;;;;;5023246;28;20038;-72
2021/10/25 08:20:24;;;;;;;2.40;1.42;;;;;;;;;;5025240;28;20025;-71
2021/10/25 08:22:49;;;;;;;2.53;1.58;;;;;;;;;;5026117;28;20074;-81
2021/10/25 08:25:14;;;;;;;3.10;1.40;;;;;;;;;;5026807;28;20119;-81
2021/10/25 08:27:42;;;;;;;3.63;1.65;;;;;;;;;;5022534;28;20084;-81
2021/10/25 08:30:07;;;;;;;2.40;1.50;;;;;;;;;;5009750;28;20036;-71
2021/10/25 08:40:27;;;;;;;3.10;1.30;;;;;;;;;;5021472;28;20060;-80
2021/10/25 08:42:52;;;;;;;3.55;1.42;;;;;;;;;;5025777;28;20041;-80
2021/10/25 08:45:20;;;;;;;3.22;1.85;;;;;;;;;;5025873;28;20656;-71
2021/10/25 08:47:48;;;;;;;3.92;1.67;;;;;;;;;;5024757;28;20029;-72
2021/10/25 08:50:17;;;;;;;3.72;1.38;;;;;;;;;;5025576;28;20044;-72
2021/10/25 08:52:43;;;;;;;3.45;1.45;;;;;;;;;;5025376;28;20040;-72
2021/10/25 08:55:10;;;;;;;3.95;1.42;;;;;;;;;;5024905;28;20658;-72
2021/10/25 08:57:36;;;;;;;2.67;1.50;;;;;;;;;;5024378;28;20013;-71
2021/10/25 09:00:04;;;;;;;3.03;1.60;;;;;;;;;;5023160;28;20032;-71
2021/10/25 09:02:30;;;;;;;3.38;1.60;;;;;;;;;;5017191;28;20053;-71
2021/10/25 09:04:59;;;;;;;4.30;1.40;;;;;;;;;;5024723;28;20125;-71
2021/10/25 09:07:25;;;;;;;3.57;1.87;;;;;;;;;;5017358;28;20029;-71
2021/10/25 09:09:50;;;;;;;2.20;1.40;;;;;;;;;;5021558;28;20260;-72
2021/10/25 09:12:16;;;;;;;3.20;1.60;;;;;;;;;;5011206;28;20021;-71
2021/10/25 09:14:41;;;;;;;2.65;1.90;;;;;;;;;;5025483;28;20292;-72
2021/10/25 09:17:07;;;;;;;4.72;1.60;;;;;;;;;;5024849;28;20043;-72
2021/10/25 09:19:32;;;;;;;3.17;1.42;;;;;;;;;;5025251;28;20076;-72
2021/10/25 09:22:08;;;;;;;2.65;1.38;;;;;;;;;;5024145;28;20029;-72
2021/10/25 09:24:33;;;;;;;2.25;1.55;;;;;;;;;;5021097;28;20631;-79
2021/10/25 09:27:01;;;;;;;2.70;1.50;;;;;;;;;;5019066;28;20022;-72
2021/10/25 09:29:27;;;;;;;3.00;1.38;;;;;;;;;;5023386;28;20503;-74
2021/10/25 09:31:53;;;;;;;3.35;1.55;;;;;;;;;;5024568;28;20252;-78
2021/10/25 09:34:21;;;;;;;3.00;1.73;;;;;;;;;;5025066;28;20083;-78
2021/10/25 09:36:51;;;;;;;3.40;1.90;;;;;;;;;;5024969;28;20013;-78
2021/10/25 09:39:38;;;;;;;2.15;1.20;;;;;;;;;;5023620;28;20025;-78
2021/10/25 09:50:04;;;;;;;3.72;1.90;;;;;;;;;;5012996;28;20025;-72
2021/10/25 09:52:36;;;;;;;4.53;1.45;;;;;;;;;;5012892;28;20551;-76
2021/10/25 09:55:03;;;;;;;2.40;1.25;;;;;;;;;;5011966;28;20033;-77
2021/10/25 10:00:15;;;;;;;3.70;1.45;;;;;;;;;;5024107;28;20026;-73
2021/10/25 10:02:40;;;;;;;2.70;1.30;;;;;;;;;;5020784;28;20022;-73
2021/10/25 10:05:08;;;;;;;2.58;1.30;;;;;;;;;;5012427;28;20047;-74
2021/10/25 10:07:33;;;;;;;3.25;1.35;;;;;;;;;;5014878;28;20620;-74
2021/10/25 10:09:58;;;;;;;3.03;1.38;;;;;;;;;;5026241;28;20029;-76
2021/10/25 10:12:27;;;;;;;3.58;1.52;;;;;;;;;;5025363;28;20091;-77
2021/10/25 10:14:57;;;;;;;2.92;1.42;;;;;;;;;;5023880;28;20687;-77
2021/10/25 10:17:22;;;;;;;2.78;1.38;;;;;;;;;;5024895;28;20407;-75
2021/10/25 10:19:48;;;;;;;2.63;1.30;;;;;;;;;;5024887;28;20104;-75
2021/10/25 10:22:13;;;;;;;2.50;1.40;;;;;;;;;;5036227;28;20140;-75
2021/10/25 10:24:40;;;;;;;2.00;1.30;;;;;;;;;;5044208;28;20422;-75
2021/10/25 10:27:06;;;;;;;2.00;1.40;;;;;;;;;;5040586;28;20270;-76
2021/10/25 10:29:35;;;;;;;3.05;1.50;;;;;;;;;;5034145;28;20952;-72
2021/10/25 10:32:01;;;;;;;2.85;1.42;;;;;;;;;;5024338;28;20623;-72
2021/10/25 10:34:36;;;;;;;2.00;1.23;;;;;;;;;;5029437;28;20504;-74
2021/10/25 10:37:01;;;;;;;3.25;1.30;;;;;;;;;;5042873;28;20269;-71
2021/10/25 10:39:27;;;;;;;4.03;1.50;;;;;;;;;;5046115;28;20025;-78
2021/10/25 10:41:53;;;;;;;2.35;1.02;;;;;;;;;;5047473;28;20031;-79
2021/10/25 10:44:19;;;;;;;3.60;1.30;;;;;;;;;;5046069;28;20086;-79
2021/10/25 10:46:59;;;;;;;2.28;1.40;;;;;;;;;;5044299;28;20104;-78
2021/10/25 10:49:27;;;;;;;2.80;1.52;;;;;;;;;;5043926;28;20036;-72
2021/10/25 10:52:18;;;;;;;2.42;1.40;;;;;;;;;;5042503;28;20032;-73
2021/10/25 10:55:10;;;;;;;2.40;1.30;;;;;;;;;;5032798;28;20024;-74
2021/10/25 11:00:20;;;;;;;2.83;1.20;;;;;;;;;;5041762;28;20619;-72
2021/10/25 11:11:59;;;;;;;2.25;1.40;;;;;;;;;;5037592;28;20072;-66
2021/10/25 11:14:28;;;;;;;2.72;1.60;;;;;;;;;;5028482;28;20028;-77
2021/10/25 11:19:50;;;;;;;2.33;1.17;;;;;;;;;;5046280;28;20759;-66
2021/10/25 11:22:25;;;;;;;2.42;1.60;;;;;;;;;;5028569;28;20024;-66
2021/10/25 11:24:52;;;;;;;2.70;1.10;;;;;;;;;;5046335;28;20056;-69
2021/10/25 11:27:20;;;;;;;3.90;1.30;;;;;;;;;;5046120;28;20036;-70
2021/10/25 11:29:46;;;;;;;3.25;1.30;;;;;;;;;;5046270;28;20425;-70
2021/10/25 11:32:12;;;;;;;12.60;2.15;;;;;;;;;;5045847;28;20032;-70
2021/10/25 11:34:44;;;;;;;2.17;1.20;;;;;;;;;;5045509;28;20040;-70
2021/10/25 11:37:17;;;;;;;2.25;1.30;;;;;;;;;;5046117;28;20021;-70
2021/10/25 11:39:56;;;;;;;2.95;1.33;;;;;;;;;;5028217;28;20071;-70
2021/10/25 11:42:23;;;;;;;4.45;2.17;;;;;;;;;;5042981;28;20032;-70
2021/10/25 11:44:49;;;;;;;2.78;1.60;;;;;;;;;;5043275;28;20485;-70
2021/10/25 11:47:21;;;;;;;2.45;1.23;;;;;;;;;;5045501;28;20028;-68
2021/10/25 11:49:46;;;;;;;3.30;1.33;;;;;;;;;;5044584;28;20028;-72
2021/10/25 11:52:12;;;;;;;1.90;1.30;;;;;;;;;;5037259;28;20486;-70
2021/10/25 11:55:03;;;;;;;3.50;1.60;;;;;;;;;;5036556;28;20060;-71
2021/10/25 11:57:28;;;;;;;2.58;1.30;;;;;;;;;;5042618;28;20784;-71
2021/10/25 12:00:07;;;;;;;2.63;1.57;;;;;;;;;;5045544;28;20017;-70
2021/10/25 12:02:33;;;;;;;2.53;1.40;;;;;;;;;;5025478;28;20355;-71
2021/10/25 12:04:58;;;;;;;4.10;1.40;;;;;;;;;;5025051;28;20087;-70
2021/10/25 12:07:24;;;;;;;1.83;1.10;;;;;;;;;;5042570;28;20360;-71
2021/10/25 12:09:59;;;;;;;2.40;1.20;;;;;;;;;;5044176;28;20020;-70
2021/10/25 12:12:24;;;;;;;2.40;1.30;;;;;;;;;;5035884;28;20056;-70
2021/10/25 12:14:50;;;;;;;2.35;1.38;;;;;;;;;;5024885;28;20419;-70
2021/10/25 12:17:17;;;;;;;2.35;1.35;;;;;;;;;;5025603;28;20021;-67
2021/10/25 12:19:43;;;;;;;2.78;1.50;;;;;;;;;;5040963;28;20032;-67
2021/10/25 12:22:11;;;;;;;6.13;1.55;;;;;;;;;;5025421;28;20025;-65
2021/10/25 12:24:41;;;;;;;2.25;1.20;;;;;;;;;;5025876;28;20034;-64
2021/10/25 12:27:08;;;;;;;4.15;1.42;;;;;;;;;;5040542;28;20137;-63
2021/10/25 12:29:34;;;;;;;3.42;1.60;;;;;;;;;;5025746;28;20177;-64
2021/10/25 12:32:11;;;;;;;7.88;1.58;;;;;;;;;;5023744;28;20705;-69
2021/10/25 12:34:49;;;;;;;2.08;1.33;;;;;;;;;;5004965;28;20026;-69
2021/10/25 12:37:18;;;;;;;2.95;1.10;;;;;;;;;;5005264;28;20030;-69
2021/10/25 12:39:43;;;;;;;3.75;1.67;;;;;;;;;;5005417;28;20032;-69
2021/10/25 12:42:09;;;;;;;2.77;1.13;;;;;;;;;;5020432;28;20477;-69
2021/10/25 12:44:36;;;;;;;4.78;2.28;;;;;;;;;;5005729;28;20388;-69
2021/10/25 12:47:05;;;;;;;2.90;1.25;;;;;;;;;;5005954;28;20117;-69
2021/10/25 12:49:31;;;;;;;2.23;1.07;;;;;;;;;;5016632;28;20533;-70
2021/10/25 12:52:01;;;;;;;2.73;1.17;;;;;;;;;;5043291;28;20029;-69
2021/10/25 12:54:26;;;;;;;2.90;1.40;;;;;;;;;;5043495;28;21169;-70
2021/10/25 12:56:52;;;;;;;3.00;1.60;;;;;;;;;;5043465;28;20091;-70
2021/10/25 12:59:19;;;;;;;2.88;1.50;;;;;;;;;;5026551;28;20026;-73
2021/10/25 13:01:53;;;;;;;4.15;1.58;;;;;;;;;;5025249;28;20144;-73
2021/10/25 13:04:19;;;;;;;4.65;1.60;;;;;;;;;;5013376;28;20061;-72
2021/10/25 13:06:45;;;;;;;3.30;1.75;;;;;;;;;;5038410;28;20068;-71
2021/10/25 13:09:10;;;;;;;2.17;1.38;;;;;;;;;;5044315;28;20040;-68
2021/10/25 13:11:35;;;;;;;4.63;1.67;;;;;;;;;;5044149;28;20060;-69
2021/10/25 13:14:01;;;;;;;2.53;1.23;;;;;;;;;;5039995;28;20025;-70
2021/10/25 13:16:46;;;;;;;2.28;1.30;;;;;;;;;;5022971;28;20317;-69
2021/10/25 13:19:15;;;;;;;3.60;1.60;;;;;;;;;;5022761;28;20107;-70
2021/10/25 13:21:40;;;;;;;3.30;1.47;;;;;;;;;;5022851;28;20079;-69
2021/10/25 13:24:06;;;;;;;3.38;1.17;;;;;;;;;;5024018;28;20279;-70
2021/10/25 13:26:32;;;;;;;3.53;1.40;;;;;;;;;;5022797;28;20067;-69
2021/10/25 13:28:57;;;;;;;3.15;1.40;;;;;;;;;;5022545;28;20021;-68
2021/10/25 13:31:22;;;;;;;3.10;1.65;;;;;;;;;;5022397;28;20044;-68
2021/10/25 13:33:48;;;;;;;3.10;1.37;;;;;;;;;;5021420;28;20155;-69
2021/10/25 13:36:13;;;;;;;3.25;1.30;;;;;;;;;;5021868;28;20271;-69
2021/10/25 13:38:39;;;;;;;2.80;1.25;;;;;;;;;;5023693;28;20009;-70
2021/10/25 13:41:04;;;;;;;3.20;1.50;;;;;;;;;;5023679;28;20652;-69
2021/10/25 13:43:30;;;;;;;3.97;1.40;;;;;;;;;;5023447;28;20048;-68
2021/10/25 13:45:55;;;;;;;4.97;1.55;;;;;;;;;;5038642;28;20116;-69
2021/10/25 13:48:20;;;;;;;2.03;1.30;;;;;;;;;;5024083;28;20068;-69
2021/10/25 13:50:46;;;;;;;2.27;1.27;;;;;;;;;;5023452;28;20957;-70
2021/10/25 13:53:11;;;;;;;2.65;1.52;;;;;;;;;;5021518;28;20029;-70
2021/10/25 13:55:36;;;;;;;7.20;1.53;;;;;;;;;;5023941;28;20017;-66
2021/10/25 13:58:02;;;;;;;2.28;1.40;;;;;;;;;;5024007;28;20476;-67
2021/10/25 14:00:27;;;;;;;2.72;1.40;;;;;;;;;;5032351;28;20032;-69
2021/10/25 14:02:55;;;;;;;3.40;1.27;;;;;;;;;;5013360;28;20629;-71
2021/10/25 14:05:21;;;;;;;3.88;1.13;;;;;;;;;;5022570;28;20039;-71
2021/10/25 14:07:46;;;;;;;4.50;1.27;;;;;;;;;;5022402;28;20025;-69
2021/10/25 14:12:41;;;;;;;3.13;1.40;;;;;;;;;;5036151;28;20053;-71
2021/10/25 14:17:42;;;;;;;2.63;1.33;;;;;;;;;;5042844;28;20021;-69
2021/10/25 14:20:07;;;;;;;3.35;1.35;;;;;;;;;;5041154;28;20038;-69
2021/10/25 14:22:32;;;;;;;3.28;1.25;;;;;;;;;;5041310;28;20040;-70
2021/10/25 14:24:58;;;;;;;2.63;1.17;;;;;;;;;;5042727;28;20031;-68
2021/10/25 14:27:23;;;;;;;4.43;1.50;;;;;;;;;;5042768;28;20117;-69
2021/10/25 14:29:48;;;;;;;2.67;1.33;;;;;;;;;;5044992;28;20020;-69
2021/10/25 14:32:13;;;;;;;2.13;1.27;;;;;;;;;;5046418;28;20410;-71
2021/10/25 14:34:39;;;;;;;2.33;1.40;;;;;;;;;;5046407;28;20271;-69
2021/10/25 14:37:08;;;;;;;2.35;1.20;;;;;;;;;;5046616;28;20279;-69
2021/10/25 14:39:40;;;;;;;2.60;1.40;;;;;;;;;;5047153;28;20017;-69
2021/10/25 14:42:16;;;;;;;2.63;1.23;;;;;;;;;;5047172;28;20146;-68
2021/10/25 14:45:29;;;;;;;2.40;1.20;;;;;;;;;;5042310;28;20053;-67
2021/10/25 14:55:44;;;;;;;2.90;1.20;;;;;;;;;;5046994;28;20170;-68
2021/10/25 14:58:09;;;;;;;3.15;1.27;;;;;;;;;;5046206;28;20562;-70
2021/10/25 15:00:35;;;;;;;2.42;1.35;;;;;;;;;;5045999;28;20021;-70
2021/10/25 15:03:01;;;;;;;2.50;1.40;;;;;;;;;;5045543;28;20024;-68
2021/10/25 15:05:26;;;;;;;2.65;0.98;;;;;;;;;;5047006;28;20549;-69
2021/10/25 15:07:52;;;;;;;4.07;1.30;;;;;;;;;;5047674;28;20106;-68
2021/10/25 15:10:17;;;;;;;2.07;1.40;;;;;;;;;;5046342;28;20789;-69
2021/10/25 15:12:43;;;;;;;2.38;1.40;;;;;;;;;;5045729;28;20354;-69
2021/10/25 15:15:08;;;;;;;2.95;1.30;;;;;;;;;;5015655;28;20025;-67
2021/10/25 15:17:33;;;;;;;3.15;1.30;;;;;;;;;;5046092;28;20020;-68
2021/10/25 15:19:59;;;;;;;3.35;1.70;;;;;;;;;;5045621;28;20534;-68
2021/10/25 15:22:24;;;;;;;4.72;2.03;;;;;;;;;;5045112;28;20040;-70
2021/10/25 15:24:52;;;;;;;6.25;2.13;;;;;;;;;;5027975;28;20029;-87
2021/10/25 15:27:19;;;;;;;4.57;1.98;;;;;;;;;;5044177;28;20028;-69
2021/10/25 15:29:45;;;;;;;3.22;1.40;;;;;;;;;;5045872;28;20024;-66
2021/10/25 15:32:11;;;;;;;2.70;1.70;;;;;;;;;;5045793;28;20017;-65
2021/10/25 15:34:37;;;;;;;2.47;1.60;;;;;;;;;;5046496;28;20032;-65
2021/10/25 15:37:02;;;;;;;3.47;1.58;;;;;;;;;;5046242;28;20025;-70
2021/10/25 15:39:28;;;;;;;4.80;1.70;;;;;;;;;;5046188;28;20013;-65
2021/10/25 15:41:53;;;;;;;2.70;1.23;;;;;;;;;;5045476;28;20439;-66
2021/10/25 15:44:18;;;;;;;4.30;1.47;;;;;;;;;;5044959;28;20074;-67
2021/10/25 15:46:43;;;;;;;3.00;1.70;;;;;;;;;;5044443;28;20660;-68
2021/10/25 15:49:09;;;;;;;5.67;1.40;;;;;;;;;;5045860;28;20013;-66
2021/10/25 15:51:35;;;;;;;2.85;1.40;;;;;;;;;;5046066;28;20021;-66
2021/10/25 15:54:00;;;;;;;3.20;1.60;;;;;;;;;;5043853;28;20052;-66
2021/10/25 15:56:27;;;;;;;3.17;1.43;;;;;;;;;;5045875;28;20481;-67
2021/10/25 15:58:52;;;;;;;3.00;1.35;;;;;;;;;;5045389;28;20247;-67
2021/10/25 16:01:18;;;;;;;4.13;1.50;;;;;;;;;;5045225;28;20032;-65
2021/10/25 16:03:43;;;;;;;4.05;1.63;;;;;;;;;;5045757;28;20419;-67
2021/10/25 16:06:09;;;;;;;2.60;1.70;;;;;;;;;;5045632;28;20059;-69
2021/10/25 16:08:35;;;;;;;3.17;1.30;;;;;;;;;;5045071;28;20501;-66
2021/10/25 16:11:01;;;;;;;3.25;1.23;;;;;;;;;;5045241;28;20013;-66
2021/10/25 16:13:26;;;;;;;3.58;1.42;;;;;;;;;;5031186;28;20553;-67
2021/10/25 16:15:51;;;;;;;4.13;1.60;;;;;;;;;;5045297;28;20051;-67
2021/10/25 16:18:17;;;;;;;3.83;1.33;;;;;;;;;;5045935;28;20601;-67
2021/10/25 16:20:42;;;;;;;3.80;1.30;;;;;;;;;;5045995;28;20472;-67
2021/10/25 16:23:07;;;;;;;2.53;1.40;;;;;;;;;;5044020;28;20025;-66
2021/10/25 16:25:32;;;;;;;2.70;1.47;;;;;;;;;;5043719;28;20274;-67
2021/10/25 16:27:58;;;;;;;2.80;1.20;;;;;;;;;;5044815;28;20119;-70
2021/10/25 16:30:23;;;;;;;5.27;1.30;;;;;;;;;;5044284;28;20426;-67
2021/10/25 16:32:50;;;;;;;5.07;1.73;;;;;;;;;;5044507;28;20308;-69
2021/10/25 16:35:16;;;;;;;8.77;2.05;;;;;;;;;;5014148;28;20029;-68
2021/10/25 16:37:42;;;;;;;7.47;1.73;;;;;;;;;;5043417;28;20013;-67
2021/10/25 16:40:08;;;;;;;7.03;2.17;;;;;;;;;;5043423;28;20017;-69
2021/10/25 16:42:33;;;;;;;8.18;1.70;;;;;;;;;;5044629;28;20021;-69
2021/10/25 16:44:59;;;;;;;7.17;1.70;;;;;;;;;;5044509;28;20335;-69
2021/10/25 16:47:24;;;;;;;6.65;1.95;;;;;;;;;;5044630;28;20262;-68
2021/10/25 16:49:53;;;;;;;6.15;2.22;;;;;;;;;;5044269;28;20629;-68
2021/10/25 17:03:29;;;;;;;6.75;1.40;;;;;;;;;;4987611;28;20094;-67
2021/10/25 17:06:07;;;;;;;5.43;1.60;;;;;;;;;;5043512;28;20510;-66